Time;durP1;ratioP1;P1;durP2;ratioP2;P2;SDS_P1;SDS_P2;PMS_P1;PMS_P2;Temp;Humidity;BMP_temperature;BMP_pressure;BME280_temperature;BME280_humidity;BME280_pressure;Samples;Min_cycle;Max_cycle;Signal;HPM_P1;HPM_P2
2023/12/22 00:02:19;;;;;;;2.83;1.23;;;;;;;5.64;100.00;92868.94;5068442;28;20036;-71
2023/12/22 00:04:45;;;;;;;6.47;3.08;;;;;;;5.53;100.00;92848.06;5068475;28;20093;-72
2023/12/22 00:07:12;;;;;;;12.10;5.30;;;;;;;5.49;100.00;92843.84;5051030;28;20054;-72
2023/12/22 00:09:39;;;;;;;2.58;1.17;;;;;;;5.47;100.00;92844.25;5068357;28;20036;-72
2023/12/22 00:12:06;;;;;;;2.30;1.10;;;;;;;5.35;100.00;92842.88;5068297;28;20067;-71
2023/12/22 00:14:33;;;;;;;3.25;1.10;;;;;;;5.49;100.00;92847.31;5068130;28;20048;-71
2023/12/22 00:17:00;;;;;;;3.60;1.20;;;;;;;5.33;100.00;92847.94;5068500;28;20535;-72
2023/12/22 00:19:26;;;;;;;2.80;1.20;;;;;;;5.23;100.00;92864.38;5067673;28;20113;-71
2023/12/22 00:21:53;;;;;;;3.58;1.10;;;;;;;5.30;100.00;92878.66;5050996;28;20047;-71
2023/12/22 00:24:20;;;;;;;2.97;1.20;;;;;;;5.06;100.00;92875.06;5068041;28;20048;-71
2023/12/22 00:26:47;;;;;;;2.30;1.10;;;;;;;5.33;100.00;92866.19;5067943;28;20477;-71
2023/12/22 00:29:14;;;;;;;4.63;1.50;;;;;;;5.28;100.00;92891.91;5068002;28;20098;-72
2023/12/22 00:31:43;;;;;;;3.53;1.30;;;;;;;5.42;100.00;92890.19;5067917;28;20053;-72
2023/12/22 00:34:09;;;;;;;4.85;1.63;;;;;;;5.58;100.00;92880.25;5084835;28;20048;-72
2023/12/22 00:36:36;;;;;;;8.25;3.25;;;;;;;5.59;100.00;92914.47;5088102;28;20060;-71
2023/12/22 00:39:03;;;;;;;11.25;4.68;;;;;;;5.52;100.00;92917.28;5088629;28;20052;-71
2023/12/22 00:41:30;;;;;;;5.20;1.60;;;;;;;5.53;100.00;92907.16;5087872;28;20044;-71
2023/12/22 00:43:56;;;;;;;4.10;1.50;;;;;;;5.36;100.00;92887.91;5088571;28;20096;-72
2023/12/22 00:46:23;;;;;;;5.10;1.48;;;;;;;5.30;100.00;92888.78;5068507;28;20059;-72
2023/12/22 00:48:50;;;;;;;5.10;1.30;;;;;;;5.24;100.00;92898.56;5067516;28;20592;-71
2023/12/22 00:51:17;;;;;;;4.85;1.50;;;;;;;5.30;100.00;92903.16;5068217;28;20057;-71
2023/12/22 00:53:43;;;;;;;3.45;1.63;;;;;;;5.26;100.00;92899.72;5068521;28;20045;-71
2023/12/22 00:56:13;;;;;;;4.97;1.80;;;;;;;5.19;100.00;92914.16;5071651;28;20063;-72
2023/12/22 00:58:40;;;;;;;7.18;2.15;;;;;;;5.11;100.00;92904.53;5071440;28;20037;-72
2023/12/22 01:01:07;;;;;;;7.50;1.90;;;;;;;5.11;100.00;92895.59;5071892;28;20044;-72
2023/12/22 01:03:34;;;;;;;6.40;1.80;;;;;;;5.23;100.00;92914.09;5053411;28;20048;-72
2023/12/22 01:06:01;;;;;;;5.30;1.98;;;;;;;5.27;100.00;92914.88;5071799;28;20607;-71
2023/12/22 01:08:28;;;;;;;4.37;1.70;;;;;;;5.08;100.00;92899.13;5053462;28;20051;-71
2023/12/22 01:10:55;;;;;;;5.57;1.50;;;;;;;4.90;100.00;92878.34;5054046;28;20690;-71
2023/12/22 01:13:22;;;;;;;4.75;1.75;;;;;;;5.06;100.00;92901.50;5071395;28;20058;-72
2023/12/22 01:15:48;;;;;;;3.25;1.73;;;;;;;5.03;100.00;92888.69;5070886;28;20036;-72
2023/12/22 01:18:15;;;;;;;6.43;1.70;;;;;;;5.04;100.00;92890.25;5071471;28;20591;-72
2023/12/22 01:20:42;;;;;;;5.47;1.43;;;;;;;4.89;100.00;92884.97;5070924;28;20053;-71
2023/12/22 01:23:09;;;;;;;5.28;1.23;;;;;;;4.76;100.00;92903.72;5071529;28;20048;-71
2023/12/22 01:25:36;;;;;;;3.95;1.40;;;;;;;4.85;100.00;92897.03;5070636;28;20052;-71
2023/12/22 01:28:03;;;;;;;3.72;1.60;;;;;;;4.98;100.00;92898.84;5071472;28;20395;-71
2023/12/22 01:30:32;;;;;;;4.25;1.75;;;;;;;5.02;100.00;92906.97;5070469;28;20040;-70
2023/12/22 01:32:59;;;;;;;3.03;1.50;;;;;;;5.08;100.00;92913.50;5078200;28;20036;-71
2023/12/22 01:35:26;;;;;;;3.85;1.27;;;;;;;5.10;100.00;92899.50;5072723;28;20044;-70
2023/12/22 01:37:53;;;;;;;4.00;1.20;;;;;;;5.19;100.00;92903.28;5091478;28;20047;-71
2023/12/22 01:40:20;;;;;;;3.35;0.98;;;;;;;5.27;100.00;92919.50;5091290;28;20112;-71
2023/12/22 01:42:47;;;;;;;2.75;1.45;;;;;;;4.97;100.00;92919.06;5091152;28;20048;-71
2023/12/22 01:45:14;;;;;;;4.37;1.10;;;;;;;4.98;100.00;92919.81;5081255;28;20047;-71
2023/12/22 01:47:42;;;;;;;2.10;1.17;;;;;;;5.02;100.00;92939.59;5070755;28;20539;-71
2023/12/22 01:50:10;;;;;;;3.40;1.40;;;;;;;5.04;100.00;92942.69;5070939;28;20047;-71
2023/12/22 01:52:41;;;;;;;4.72;1.25;;;;;;;5.18;100.00;92922.72;5070382;28;20444;-72
2023/12/22 01:55:11;;;;;;;3.33;1.42;;;;;;;5.05;100.00;92941.50;5053043;28;20051;-71
2023/12/22 01:57:40;;;;;;;3.53;1.30;;;;;;;5.06;100.00;92945.75;5070460;28;20623;-71
2023/12/22 02:00:08;;;;;;;3.72;1.25;;;;;;;4.85;100.00;92940.53;5070871;28;20045;-71
2023/12/22 02:02:38;;;;;;;3.03;1.45;;;;;;;5.02;100.00;92950.47;5069940;28;20074;-71
2023/12/22 02:05:09;;;;;;;3.15;1.20;;;;;;;4.99;100.00;92959.44;5070337;28;20460;-71
2023/12/22 02:07:36;;;;;;;4.25;1.60;;;;;;;4.95;100.00;92950.53;5069425;28;20582;-71
2023/12/22 02:10:03;;;;;;;3.90;1.60;;;;;;;5.00;100.00;92958.25;5070634;28;20367;-71
2023/12/22 02:12:30;;;;;;;3.47;1.50;;;;;;;4.92;100.00;92943.97;5069803;28;20044;-71
2023/12/22 02:14:57;;;;;;;4.13;1.50;;;;;;;4.96;100.00;92963.72;5070686;28;20043;-71
2023/12/22 02:17:30;;;;;;;5.10;1.48;;;;;;;4.86;100.00;92966.56;5069695;28;20055;-70
2023/12/22 02:19:58;;;;;;;3.13;1.40;;;;;;;4.84;100.00;92942.47;5070358;28;20052;-71
2023/12/22 02:22:29;;;;;;;4.97;1.70;;;;;;;5.19;100.00;92971.28;5069381;28;20153;-71
2023/12/22 02:24:56;;;;;;;5.10;1.90;;;;;;;4.97;100.00;92975.38;5070249;28;20047;-71
2023/12/22 02:27:39;;;;;;;5.43;2.45;;;;;;;5.04;100.00;92977.25;5052053;28;20064;-71
2023/12/22 02:30:25;;;;;;;5.40;2.00;;;;;;;5.04;100.00;92966.38;5069362;28;20808;-71
2023/12/22 02:32:57;;;;;;;3.58;1.27;;;;;;;5.03;100.00;92971.06;5075342;28;22185;-71
2023/12/22 02:35:27;;;;;;;4.17;1.30;;;;;;;4.77;100.00;92969.75;5089560;28;20066;-70
2023/12/22 02:37:58;;;;;;;2.80;1.17;;;;;;;4.94;100.00;92968.03;5090449;28;20055;-71
2023/12/22 02:40:26;;;;;;;4.38;1.50;;;;;;;4.92;100.00;92971.13;5071933;28;20481;-70
2023/12/22 02:42:53;;;;;;;4.85;1.50;;;;;;;4.88;100.00;92970.41;5072454;28;20043;-71
2023/12/22 02:45:20;;;;;;;2.92;1.20;;;;;;;4.90;100.00;92975.44;5079024;28;20040;-71
2023/12/22 02:47:47;;;;;;;3.30;1.40;;;;;;;4.78;100.00;92980.19;5069436;28;20404;-71
2023/12/22 02:50:16;;;;;;;4.85;1.60;;;;;;;4.83;100.00;92972.78;5069751;28;20075;-71
2023/12/22 02:52:43;;;;;;;4.00;1.10;;;;;;;4.84;100.00;92971.63;5069250;28;20036;-71
2023/12/22 02:55:10;;;;;;;3.13;1.20;;;;;;;4.74;100.00;92981.41;5069589;28;20043;-71
2023/12/22 02:57:37;;;;;;;3.45;1.42;;;;;;;4.78;100.00;92963.88;5068690;28;20040;-71
2023/12/22 03:00:06;;;;;;;4.43;1.27;;;;;;;4.75;100.00;92978.28;5069466;28;20053;-71
2023/12/22 03:02:32;;;;;;;5.43;1.60;;;;;;;4.73;100.00;92975.22;5068835;28;20051;-71
2023/12/22 03:04:59;;;;;;;3.85;1.25;;;;;;;4.76;100.00;92987.22;5069675;28;20048;-71
2023/12/22 03:07:26;;;;;;;3.67;1.50;;;;;;;4.68;100.00;92983.00;5051171;28;20044;-71
2023/12/22 03:09:53;;;;;;;4.05;1.65;;;;;;;4.74;100.00;92989.56;5069284;28;20413;-72
2023/12/22 03:12:19;;;;;;;4.43;1.43;;;;;;;4.94;100.00;92998.69;5069168;28;20048;-72
2023/12/22 03:14:46;;;;;;;4.22;1.48;;;;;;;4.96;100.00;92998.31;5068863;28;20036;-71
2023/12/22 03:17:14;;;;;;;2.60;1.30;;;;;;;4.89;100.00;92979.31;5069301;28;20044;-72
2023/12/22 03:19:41;;;;;;;4.63;2.10;;;;;;;4.65;100.00;92989.22;5067363;28;20058;-71
2023/12/22 03:22:08;;;;;;;2.58;1.40;;;;;;;4.83;100.00;92987.16;5069279;28;20044;-72
2023/12/22 03:24:35;;;;;;;3.47;1.40;;;;;;;4.69;100.00;92969.03;5068294;28;20098;-72
2023/12/22 03:27:02;;;;;;;4.28;1.42;;;;;;;4.61;100.00;92967.53;5069129;28;20045;-72
2023/12/22 03:29:28;;;;;;;2.72;1.33;;;;;;;4.67;100.00;92965.94;5068589;28;20055;-71
2023/12/22 03:31:55;;;;;;;4.82;1.50;;;;;;;4.74;100.00;92982.16;5051424;28;20056;-71
2023/12/22 03:34:22;;;;;;;3.00;1.50;;;;;;;4.64;100.00;92996.63;5052881;28;20048;-71
2023/12/22 03:36:49;;;;;;;3.97;1.83;;;;;;;4.74;100.00;92992.28;5088320;28;20642;-72
2023/12/22 03:39:16;;;;;;;5.63;1.70;;;;;;;4.62;100.00;92993.53;5089211;28;20040;-72
2023/12/22 03:41:43;;;;;;;4.70;1.77;;;;;;;4.54;100.00;93019.22;5088747;28;20052;-71
2023/12/22 03:44:10;;;;;;;3.20;1.45;;;;;;;4.48;100.00;93005.28;5089191;28;20048;-72
2023/12/22 03:46:36;;;;;;;5.60;1.80;;;;;;;4.35;100.00;92980.53;5070548;28;20485;-71
2023/12/22 03:49:03;;;;;;;4.63;1.40;;;;;;;4.25;100.00;92986.81;5089187;28;20040;-71
2023/12/22 03:51:30;;;;;;;3.20;1.42;;;;;;;4.36;100.00;92990.22;5088020;28;20052;-72
2023/12/22 03:53:57;;;;;;;7.32;1.90;;;;;;;4.38;100.00;92997.97;5089055;28;20071;-71
2023/12/22 03:56:23;;;;;;;6.20;1.60;;;;;;;4.28;100.00;92991.44;5089020;28;20044;-72
2023/12/22 03:58:50;;;;;;;4.43;1.88;;;;;;;4.12;100.00;93008.22;5088250;28;20908;-71
2023/12/22 04:01:17;;;;;;;5.47;1.67;;;;;;;4.37;100.00;92991.78;5089033;28;20058;-71
2023/12/22 04:03:44;;;;;;;6.50;1.80;;;;;;;4.23;100.00;92997.31;5088326;28;20048;-72
2023/12/22 04:06:10;;;;;;;5.75;1.80;;;;;;;4.27;100.00;92970.88;5071081;28;20048;-72
2023/12/22 04:08:37;;;;;;;4.70;1.45;;;;;;;4.38;100.00;92979.72;5088325;28;20040;-72
2023/12/22 04:11:04;;;;;;;4.82;1.77;;;;;;;4.46;100.00;92976.97;5088956;28;20404;-71
2023/12/22 04:13:31;;;;;;;5.00;1.40;;;;;;;4.28;100.00;92977.84;5088045;28;20046;-71
2023/12/22 04:15:57;;;;;;;6.47;1.55;;;;;;;4.26;100.00;92974.75;5088877;28;20081;-72
2023/12/22 04:18:24;;;;;;;6.28;1.75;;;;;;;4.23;100.00;92978.28;5087938;28;20078;-71
2023/12/22 04:20:53;;;;;;;7.00;2.00;;;;;;;4.24;100.00;92985.25;5088790;28;20040;-71
2023/12/22 04:23:20;;;;;;;6.22;1.80;;;;;;;4.26;100.00;92991.06;5088791;28;20676;-72
2023/12/22 04:25:47;;;;;;;5.23;1.60;;;;;;;4.27;100.00;92984.47;5088061;28;20052;-72
2023/12/22 04:28:14;;;;;;;6.47;1.90;;;;;;;4.23;100.00;92985.66;5088887;28;20416;-71
2023/12/22 04:30:41;;;;;;;5.53;1.63;;;;;;;4.45;100.00;92989.00;5091648;28;20056;-71
2023/12/22 04:33:08;;;;;;;7.95;1.60;;;;;;;4.56;100.00;92995.13;5074374;28;20687;-72
2023/12/22 04:35:35;;;;;;;6.70;1.70;;;;;;;4.59;100.00;93002.50;5091792;28;20390;-71
2023/12/22 04:38:02;;;;;;;6.17;1.83;;;;;;;4.41;100.00;93008.06;5092712;28;20063;-71
2023/12/22 04:40:29;;;;;;;5.43;1.60;;;;;;;4.59;100.00;93016.84;5091922;28;20051;-71
2023/12/22 04:42:56;;;;;;;5.72;1.60;;;;;;;4.59;100.00;93011.41;5092596;28;20057;-72
2023/12/22 04:45:22;;;;;;;5.47;1.55;;;;;;;4.36;100.00;93003.78;5074171;28;20040;-72
2023/12/22 04:47:49;;;;;;;7.28;2.03;;;;;;;4.23;100.00;93016.31;5091365;28;20066;-72
2023/12/22 04:50:16;;;;;;;5.60;2.00;;;;;;;4.20;100.00;93028.75;5092473;28;20421;-72
2023/12/22 04:52:43;;;;;;;15.43;6.05;;;;;;;4.45;100.00;93014.22;5073632;28;20052;-71
2023/12/22 04:55:10;;;;;;;5.38;1.90;;;;;;;4.39;100.00;93013.13;5092364;28;20043;-71
2023/12/22 04:57:36;;;;;;;6.85;1.50;;;;;;;4.31;100.00;93004.22;5091445;28;20044;-71
2023/12/22 05:00:04;;;;;;;4.43;1.48;;;;;;;4.36;100.00;93013.91;5074340;28;20481;-71
2023/12/22 05:02:31;;;;;;;5.90;1.50;;;;;;;4.35;100.00;93026.72;5073659;28;20051;-72
2023/12/22 05:04:58;;;;;;;5.97;1.95;;;;;;;4.39;100.00;93032.88;5092222;28;20074;-72
2023/12/22 05:07:25;;;;;;;4.05;1.70;;;;;;;4.54;100.00;93025.41;5091286;28;20044;-71
2023/12/22 05:09:52;;;;;;;7.35;2.00;;;;;;;4.42;100.00;93025.13;5092239;28;20097;-72
2023/12/22 05:12:19;;;;;;;4.13;1.33;;;;;;;4.35;100.00;93031.38;5074169;28;20044;-72
2023/12/22 05:14:46;;;;;;;7.90;1.80;;;;;;;4.21;100.00;93037.66;5073194;28;20044;-71
2023/12/22 05:17:13;;;;;;;6.68;1.73;;;;;;;4.46;100.00;93053.03;5091892;28;20493;-71
2023/12/22 05:19:40;;;;;;;6.28;2.30;;;;;;;4.38;100.00;93057.72;5090983;28;20101;-72
2023/12/22 05:22:07;;;;;;;9.38;2.40;;;;;;;4.33;100.00;93061.66;5091937;28;20565;-71
2023/12/22 05:24:33;;;;;;;6.95;2.75;;;;;;;4.30;100.00;93048.84;5091022;28;20044;-71
2023/12/22 05:27:02;;;;;;;6.73;2.40;;;;;;;4.31;100.00;93039.53;5091357;28;20043;-72
2023/12/22 05:29:29;;;;;;;7.85;1.90;;;;;;;4.23;100.00;93037.28;5090846;28;20481;-72
2023/12/22 05:31:56;;;;;;;7.85;2.00;;;;;;;4.40;100.00;93030.94;5091588;28;20054;-71
2023/12/22 05:34:23;;;;;;;7.50;1.75;;;;;;;4.34;100.00;93025.16;5073778;28;20035;-72
2023/12/22 05:36:50;;;;;;;6.13;2.00;;;;;;;4.37;100.00;93032.50;5090493;28;20779;-72
2023/12/22 05:39:17;;;;;;;8.70;1.93;;;;;;;4.36;100.00;93017.38;5091247;28;20044;-72
2023/12/22 05:41:43;;;;;;;9.75;3.90;;;;;;;4.28;100.00;93021.31;5089158;28;20081;-72
2023/12/22 05:44:10;;;;;;;17.30;6.78;;;;;;;4.41;100.00;93013.50;5091177;28;20411;-72
2023/12/22 05:46:38;;;;;;;9.73;2.60;;;;;;;4.42;100.00;93038.69;5090436;28;20052;-72
2023/12/22 05:49:05;;;;;;;3.92;1.48;;;;;;;4.56;100.00;93027.72;5056679;28;20044;-72
2023/12/22 05:51:39;;;;;;;5.67;2.17;;;;;;;4.33;100.00;93026.34;5072453;28;20100;-72
2023/12/22 05:54:11;;;;;;;5.05;1.80;;;;;;;4.31;100.00;93030.63;5091164;28;20496;-72
2023/12/22 05:56:38;;;;;;;4.70;1.98;;;;;;;4.34;100.00;93025.16;5089940;28;20062;-72
2023/12/22 05:59:05;;;;;;;6.00;1.98;;;;;;;4.25;100.00;93029.50;5091119;28;20108;-72
2023/12/22 06:01:32;;;;;;;5.95;1.80;;;;;;;4.36;100.00;93049.97;5080526;28;20408;-71
2023/12/22 06:03:59;;;;;;;3.30;1.50;;;;;;;4.45;100.00;93051.47;5077997;28;20045;-72
2023/12/22 06:06:27;;;;;;;5.82;1.50;;;;;;;4.58;100.00;93056.03;5090794;28;20485;-71
2023/12/22 06:08:54;;;;;;;6.00;2.15;;;;;;;4.55;100.00;93050.66;5090980;28;20074;-72
2023/12/22 06:11:21;;;;;;;6.63;2.00;;;;;;;4.48;100.00;93056.13;5090951;28;20048;-72
2023/12/22 06:13:49;;;;;;;5.70;1.60;;;;;;;4.60;100.00;93051.00;5090446;28;20040;-72
2023/12/22 06:16:18;;;;;;;5.90;1.60;;;;;;;4.60;100.00;93055.66;5091147;28;20680;-72
2023/12/22 06:18:45;;;;;;;6.18;1.67;;;;;;;4.62;100.00;93050.59;5089601;28;20043;-72
2023/12/22 06:21:12;;;;;;;7.57;1.80;;;;;;;4.49;100.00;93055.75;5090726;28;20040;-72
2023/12/22 06:23:39;;;;;;;7.53;1.70;;;;;;;4.42;100.00;93055.75;5071616;28;20054;-70
2023/12/22 06:26:10;;;;;;;7.45;2.10;;;;;;;4.56;100.00;93069.25;5106622;28;20044;-71
2023/12/22 06:28:39;;;;;;;8.33;2.37;;;;;;;4.60;100.00;93088.25;5091699;28;20047;-71
2023/12/22 06:31:07;;;;;;;7.15;1.80;;;;;;;4.36;100.00;93079.09;5110840;28;20039;-71
2023/12/22 06:33:34;;;;;;;8.35;2.10;;;;;;;4.24;100.00;93091.16;5107159;28;20039;-71
2023/12/22 06:36:01;;;;;;;6.72;2.00;;;;;;;4.28;100.00;93093.88;5110903;28;20062;-71
2023/12/22 06:38:28;;;;;;;7.45;2.13;;;;;;;4.26;100.00;93088.06;5110451;28;20492;-71
2023/12/22 06:40:55;;;;;;;5.63;1.77;;;;;;;4.34;100.00;93100.44;5111064;28;20395;-71
2023/12/22 06:43:22;;;;;;;6.22;1.70;;;;;;;4.42;100.00;93101.19;5110546;28;20464;-72
2023/12/22 06:45:49;;;;;;;7.35;1.60;;;;;;;4.39;100.00;93094.59;5094626;28;20328;-72
2023/12/22 06:48:16;;;;;;;7.65;2.30;;;;;;;4.30;100.00;93095.03;5090278;28;20066;-72
2023/12/22 06:50:44;;;;;;;6.82;2.20;;;;;;;4.17;100.00;93105.56;5089379;28;20043;-69
2023/12/22 06:53:12;;;;;;;5.50;1.70;;;;;;;4.11;100.00;93104.44;5089695;28;20044;-69
2023/12/22 06:55:51;;;;;;;4.57;1.90;;;;;;;4.22;100.00;93117.19;5072632;28;20848;-69
2023/12/22 06:58:21;;;;;;;7.97;2.13;;;;;;;4.17;100.00;93110.22;5089967;28;20390;-69
2023/12/22 07:00:48;;;;;;;4.38;1.70;;;;;;;4.27;100.00;93122.22;5088969;28;20036;-70
2023/12/22 07:03:16;;;;;;;6.07;1.80;;;;;;;4.23;100.00;93119.50;5089911;28;20047;-70
2023/12/22 07:05:44;;;;;;;6.23;1.97;;;;;;;4.31;100.00;93137.31;5089059;28;20050;-69
2023/12/22 07:08:11;;;;;;;6.25;2.50;;;;;;;4.22;100.00;93136.19;5089643;28;20052;-69
2023/12/22 07:10:38;;;;;;;6.38;1.95;;;;;;;4.24;100.00;93129.19;5089167;28;20044;-70
2023/12/22 07:13:05;;;;;;;8.95;2.67;;;;;;;4.07;100.00;93144.41;5089803;28;20092;-70
2023/12/22 07:15:32;;;;;;;11.18;3.20;;;;;;;4.37;100.00;93122.16;5088851;28;20044;-71
2023/12/22 07:17:59;;;;;;;5.90;2.00;;;;;;;4.28;100.00;93105.50;5089906;28;20075;-70
2023/12/22 07:20:26;;;;;;;7.85;1.95;;;;;;;4.36;100.00;93117.88;5088273;28;20052;-70
2023/12/22 07:22:53;;;;;;;7.85;1.90;;;;;;;4.42;100.00;93114.75;5071668;28;20052;-70
2023/12/22 07:25:22;;;;;;;7.38;1.70;;;;;;;4.38;100.00;93136.50;5088410;28;20044;-72
2023/12/22 07:27:49;;;;;;;8.30;2.70;;;;;;;4.52;100.00;93152.75;5071355;28;21019;-71
2023/12/22 07:30:17;;;;;;;6.40;1.93;;;;;;;4.37;100.00;93160.19;5089797;28;20048;-71
2023/12/22 07:32:47;;;;;;;7.45;1.88;;;;;;;4.29;100.00;93171.47;5083858;28;20106;-72
2023/12/22 07:35:14;;;;;;;5.90;2.08;;;;;;;4.50;100.00;93178.75;5069640;28;20105;-69
2023/12/22 07:37:44;;;;;;;9.55;2.20;;;;;;;4.44;100.00;93164.81;5068812;28;20037;-70
2023/12/22 07:40:11;;;;;;;6.55;2.10;;;;;;;3.94;100.00;93163.06;5069246;28;20119;-69
2023/12/22 07:42:38;;;;;;;6.80;1.90;;;;;;;3.91;100.00;93163.81;5068616;28;20524;-70
2023/12/22 07:45:05;;;;;;;6.38;1.85;;;;;;;4.17;100.00;93173.44;5077291;28;20047;-65
2023/12/22 07:47:32;;;;;;;6.30;2.15;;;;;;;4.31;100.00;93171.88;5088250;28;20127;-68
2023/12/22 07:50:00;;;;;;;5.53;2.33;;;;;;;4.11;100.00;93157.97;5079487;28;20044;-70
2023/12/22 07:52:29;;;;;;;7.05;2.20;;;;;;;4.17;100.00;93161.81;5070646;28;20052;-68
2023/12/22 07:54:56;;;;;;;6.80;1.90;;;;;;;4.28;100.00;93157.09;5089222;28;20046;-70
2023/12/22 07:57:23;;;;;;;7.30;2.40;;;;;;;4.53;100.00;93158.97;5089081;28;20044;-70
2023/12/22 07:59:50;;;;;;;6.15;1.67;;;;;;;4.50;100.00;93165.19;5088353;28;21644;-69
2023/12/22 08:02:16;;;;;;;5.82;2.03;;;;;;;4.50;100.00;93178.75;5089269;28;20058;-69
2023/12/22 08:04:43;;;;;;;6.72;1.55;;;;;;;4.63;100.00;93181.81;5087749;28;20040;-69
2023/12/22 08:07:10;;;;;;;4.40;1.40;;;;;;;4.44;100.00;93172.19;5089065;28;20040;-69
2023/12/22 08:09:37;;;;;;;5.68;1.70;;;;;;;4.53;100.00;93184.19;5088213;28;20044;-69
2023/12/22 08:12:04;;;;;;;5.22;1.70;;;;;;;4.49;100.00;93177.22;5088714;28;20052;-69
2023/12/22 08:14:31;;;;;;;5.25;1.77;;;;;;;4.31;100.00;93172.63;5088057;28;20044;-69
2023/12/22 08:16:58;;;;;;;7.70;2.80;;;;;;;4.29;100.00;93169.53;5089217;28;20055;-69
2023/12/22 08:19:25;;;;;;;5.63;1.50;;;;;;;4.49;100.00;93169.84;5066551;28;20485;-69
2023/12/22 08:21:56;;;;;;;7.00;1.45;;;;;;;4.69;100.00;93172.06;5082680;28;20040;-69
2023/12/22 08:24:24;;;;;;;4.63;2.10;;;;;;;4.63;100.00;93179.09;5088260;28;20052;-68
2023/12/22 08:26:51;;;;;;;5.07;1.75;;;;;;;4.28;100.00;93173.41;5067028;28;20051;-70
2023/12/22 08:29:21;;;;;;;6.10;1.83;;;;;;;4.28;100.00;93187.00;5083309;28;20044;-70
2023/12/22 08:31:48;;;;;;;4.03;1.52;;;;;;;4.32;100.00;93198.63;5088544;28;20050;-70
2023/12/22 08:34:15;;;;;;;6.45;2.28;;;;;;;4.28;100.00;93200.56;5088140;28;20055;-69
2023/12/22 08:36:42;;;;;;;3.25;1.48;;;;;;;4.43;100.00;93212.19;5088396;28;20039;-69
2023/12/22 08:39:10;;;;;;;4.13;1.13;;;;;;;4.47;100.00;93202.06;5088617;28;20056;-69
2023/12/22 08:41:37;;;;;;;3.08;1.45;;;;;;;4.65;100.00;93199.28;5088057;28;20032;-69
2023/12/22 08:44:06;;;;;;;3.90;1.48;;;;;;;4.58;100.00;93194.63;5088281;28;20078;-70
2023/12/22 08:46:34;;;;;;;5.22;1.60;;;;;;;4.70;100.00;93190.69;5070521;28;20036;-69
2023/12/22 08:49:02;;;;;;;4.20;1.65;;;;;;;4.66;100.00;93208.97;5073671;28;20048;-69
2023/12/22 08:51:29;;;;;;;4.20;0.93;;;;;;;4.88;100.00;93187.13;5088164;28;20044;-69
2023/12/22 08:53:56;;;;;;;4.93;1.40;;;;;;;4.63;100.00;93181.81;5088713;28;20047;-69
2023/12/22 08:56:23;;;;;;;5.05;1.40;;;;;;;4.64;100.00;93189.56;5088475;28;20419;-69
2023/12/22 08:58:52;;;;;;;4.00;1.60;;;;;;;4.56;100.00;93207.84;5087417;28;20685;-69
2023/12/22 09:01:19;;;;;;;4.78;1.60;;;;;;;4.75;100.00;93203.13;5081859;28;20507;-69
2023/12/22 09:03:46;;;;;;;3.70;1.60;;;;;;;4.76;100.00;93197.28;5084790;28;20047;-69
2023/12/22 09:06:17;;;;;;;3.63;1.20;;;;;;;4.69;100.00;93167.44;5088786;28;20044;-69
2023/12/22 09:08:44;;;;;;;3.77;1.20;;;;;;;4.97;100.00;93190.97;5088079;28;23612;-69
2023/12/22 09:11:12;;;;;;;3.25;1.30;;;;;;;4.91;100.00;93189.84;5081420;28;21105;-69
2023/12/22 09:13:39;;;;;;;3.40;1.27;;;;;;;4.88;100.00;93206.16;5074593;28;20048;-69
2023/12/22 09:16:06;;;;;;;3.92;1.20;;;;;;;4.50;100.00;93209.41;5079249;28;20036;-69
2023/12/22 09:18:33;;;;;;;3.42;1.10;;;;;;;4.62;100.00;93207.44;5043260;28;20090;-69
2023/12/22 09:21:00;;;;;;;3.08;1.27;;;;;;;4.64;100.00;93197.72;5080402;28;20043;-69
2023/12/22 09:23:27;;;;;;;3.42;1.20;;;;;;;4.59;100.00;93207.06;5079788;28;20048;-69
2023/12/22 09:25:54;;;;;;;2.70;1.20;;;;;;;4.63;100.00;93215.22;5074315;28;20121;-69
2023/12/22 09:28:21;;;;;;;2.42;1.17;;;;;;;4.69;100.00;93223.69;5080010;28;20044;-69
2023/12/22 09:30:48;;;;;;;2.67;1.25;;;;;;;4.72;100.00;93228.38;5081781;28;20044;-69
2023/12/22 09:33:15;;;;;;;4.23;1.47;;;;;;;4.75;100.00;93222.91;5075866;28;20048;-68
2023/12/22 09:35:42;;;;;;;3.72;1.63;;;;;;;5.11;100.00;93228.19;5080671;28;20779;-69
2023/12/22 09:38:10;;;;;;;3.28;1.50;;;;;;;5.09;100.00;93222.38;5076893;28;20059;-69
2023/12/22 09:40:38;;;;;;;3.83;1.55;;;;;;;5.40;100.00;93219.81;5077912;28;20040;-68
2023/12/22 09:43:07;;;;;;;9.38;5.10;;;;;;;5.39;100.00;93210.09;5069609;28;20040;-69
2023/12/22 09:45:34;;;;;;;2.40;1.30;;;;;;;5.20;100.00;93204.00;5081953;28;20964;-70
2023/12/22 09:48:01;;;;;;;3.05;1.23;;;;;;;5.49;100.00;93209.25;5077748;28;20044;-70
2023/12/22 09:50:28;;;;;;;3.25;1.30;;;;;;;5.30;100.00;93193.47;5079294;28;20044;-69
2023/12/22 09:52:56;;;;;;;2.78;1.25;;;;;;;5.69;100.00;93201.31;5078790;28;20142;-70
2023/12/22 09:55:24;;;;;;;3.08;1.20;;;;;;;5.55;100.00;93196.78;5079652;28;20044;-69
2023/12/22 09:57:52;;;;;;;2.37;1.43;;;;;;;5.60;100.00;93184.69;5080733;28;21441;-69
2023/12/22 10:00:21;;;;;;;3.25;1.45;;;;;;;5.32;100.00;93186.44;5078633;28;20059;-69
2023/12/22 10:02:48;;;;;;;3.90;1.50;;;;;;;5.48;100.00;93196.84;5077652;28;20047;-69
2023/12/22 10:05:15;;;;;;;4.47;1.27;;;;;;;5.90;100.00;93197.66;5074418;28;20109;-69
2023/12/22 10:07:44;;;;;;;2.90;1.38;;;;;;;5.58;100.00;93185.09;5073999;28;20048;-69
2023/12/22 10:10:12;;;;;;;3.67;1.27;;;;;;;5.60;100.00;93190.13;5076847;28;20052;-70
2023/12/22 10:12:41;;;;;;;4.07;1.15;;;;;;;5.22;100.00;93213.75;5074882;28;20413;-70
2023/12/22 10:15:09;;;;;;;2.67;1.02;;;;;;;5.29;100.00;93211.75;5076278;28;20051;-70
2023/12/22 10:17:36;;;;;;;3.65;1.40;;;;;;;5.26;100.00;93211.78;5079351;28;20051;-70
2023/12/22 10:20:04;;;;;;;3.10;1.55;;;;;;;5.13;100.00;93203.28;5078381;28;20078;-69
2023/12/22 10:22:31;;;;;;;6.27;1.67;;;;;;;5.43;100.00;93194.53;5078469;28;20045;-71
2023/12/22 10:24:58;;;;;;;6.05;1.50;;;;;;;5.51;100.00;93200.69;5059854;28;20048;-71
2023/12/22 10:27:24;;;;;;;4.90;1.77;;;;;;;5.46;100.00;93198.41;5073008;28;20482;-70
2023/12/22 10:29:56;;;;;;;5.80;1.48;;;;;;;5.46;100.00;93204.63;5076620;28;20054;-72
2023/12/22 10:32:23;;;;;;;5.38;1.55;;;;;;;5.54;100.00;93194.47;5077189;28;20070;-72
2023/12/22 10:34:53;;;;;;;6.03;1.37;;;;;;;5.43;100.00;93199.97;5078128;28;20166;-72
2023/12/22 10:37:21;;;;;;;4.88;1.40;;;;;;;5.50;100.00;93197.22;5077890;28;20052;-71
2023/12/22 10:39:52;;;;;;;5.95;2.15;;;;;;;5.66;100.00;93195.94;5077088;28;20048;-72
2023/12/22 10:42:19;;;;;;;5.30;1.55;;;;;;;5.21;100.00;93193.91;5082304;28;20040;-72
2023/12/22 10:44:46;;;;;;;4.90;1.90;;;;;;;5.09;100.00;93181.56;5076934;28;20048;-72
2023/12/22 10:47:17;;;;;;;7.87;2.40;;;;;;;5.03;100.00;93193.25;5078589;28;20044;-72
2023/12/22 10:49:46;;;;;;;5.93;2.00;;;;;;;4.86;100.00;93187.53;5074811;28;20483;-70
2023/12/22 10:52:20;;;;;;;7.75;2.03;;;;;;;5.01;100.00;93174.63;5076685;28;20054;-69
2023/12/22 10:54:50;;;;;;;7.25;2.00;;;;;;;5.13;100.00;93170.66;5076509;28;20036;-70
2023/12/22 10:57:19;;;;;;;8.23;3.17;;;;;;;5.29;100.00;93167.44;5074895;28;20048;-69
2023/12/22 10:59:47;;;;;;;5.97;1.83;;;;;;;5.25;100.00;93156.59;5077629;28;20052;-70
2023/12/22 11:02:28;;;;;;;5.75;1.88;;;;;;;5.27;100.00;93159.69;5076276;28;20620;-70
2023/12/22 11:05:02;;;;;;;6.85;2.30;;;;;;;5.14;100.00;93147.72;5073339;28;20188;-70
2023/12/22 11:07:32;;;;;;;7.53;2.20;;;;;;;5.03;100.00;93155.97;5077917;28;20040;-70
2023/12/22 11:10:04;;;;;;;7.80;3.40;;;;;;;5.13;100.00;93151.59;5078093;28;20036;-71
2023/12/22 11:12:38;;;;;;;7.53;2.20;;;;;;;5.15;100.00;93147.34;5079435;28;20040;-71
2023/12/22 11:15:06;;;;;;;27.40;8.23;;;;;;;5.09;100.00;93145.41;5076723;28;20055;-71
2023/12/22 11:17:35;;;;;;;7.70;2.83;;;;;;;5.20;100.00;93152.34;5077959;28;20447;-69
2023/12/22 11:20:04;;;;;;;8.98;2.22;;;;;;;5.25;100.00;93151.16;5075578;28;20405;-72
2023/12/22 11:22:32;;;;;;;7.82;2.28;;;;;;;5.30;100.00;93145.28;5081202;28;20446;-71
2023/12/22 11:25:02;;;;;;;4.83;2.00;;;;;;;5.17;100.00;93139.56;5076572;28;20060;-69
2023/12/22 11:27:30;;;;;;;8.80;2.60;;;;;;;5.46;100.00;93127.66;5076583;28;20046;-71
2023/12/22 11:29:58;;;;;;;5.57;1.80;;;;;;;5.39;100.00;93133.91;5079637;28;20144;-71
2023/12/22 11:32:26;;;;;;;5.25;1.60;;;;;;;5.57;100.00;93125.59;5081706;28;20044;-71
2023/12/22 11:34:54;;;;;;;5.13;1.85;;;;;;;5.45;100.00;93128.81;5080149;28;20352;-71
2023/12/22 11:37:21;;;;;;;3.90;1.50;;;;;;;5.36;100.00;93111.00;5079508;28;20512;-72